Time;durP1;ratioP1;P1;durP2;ratioP2;P2;SDS_P1;SDS_P2;PMS_P1;PMS_P2;Temp;Humidity;BMP_temperature;BMP_pressure;BME280_temperature;BME280_humidity;BME280_pressure;Samples;Min_cycle;Max_cycle;Signal;HPM_P1;HPM_P2
2022/07/03 00:01:38;;;;;;;;;;;25.00;43.80;;;;;;8467256;28;20181;-45
2022/07/03 00:05:38;;;;;;;;;;;25.00;43.80;;;;;;8467915;28;19915;-43
2022/07/03 00:09:39;;;;;;;;;;;25.00;43.80;;;;;;8467535;28;20356;-44
2022/07/03 00:13:39;;;;;;;;;;;25.00;43.80;;;;;;8466955;28;20422;-43
2022/07/03 00:17:40;;;;;;;;;;;25.00;43.80;;;;;;8467163;28;19968;-43
2022/07/03 00:21:45;;;;;;;;;;;25.00;44.30;;;;;;8466996;28;20006;-44
2022/07/03 00:25:46;;;;;;;;;;;25.00;43.80;;;;;;8466319;28;19963;-44
2022/07/03 00:29:49;;;;;;;;;;;25.00;43.80;;;;;;8467050;28;19907;-44
2022/07/03 00:33:51;;;;;;;;;;;25.00;43.80;;;;;;8466981;28;19961;-44
2022/07/03 00:37:51;;;;;;;;;;;25.00;43.90;;;;;;8466234;28;19912;-45
2022/07/03 00:42:02;;;;;;;;;;;25.00;43.80;;;;;;8466194;28;19918;-44
2022/07/03 00:46:07;;;;;;;;;;;25.00;43.90;;;;;;8466103;28;19930;-44
2022/07/03 00:50:08;;;;;;;;;;;25.00;43.90;;;;;;8466117;28;19908;-43
2022/07/03 00:54:09;;;;;;;;;;;25.00;43.90;;;;;;8466018;28;20427;-43
2022/07/03 00:58:09;;;;;;;;;;;24.90;43.90;;;;;;8465922;28;19918;-44
2022/07/03 01:02:29;;;;;;;;;;;24.90;43.90;;;;;;8465139;28;19912;-43
2022/07/03 01:06:32;;;;;;;;;;;24.90;43.90;;;;;;8457249;28;19959;-43
2022/07/03 01:10:52;;;;;;;;;;;24.90;43.90;;;;;;8465352;28;19907;-44
2022/07/03 01:15:04;;;;;;;;;;;24.90;43.90;;;;;;8431792;28;20001;-43
2022/07/03 01:19:10;;;;;;;;;;;24.90;43.90;;;;;;8459857;28;19912;-43
2022/07/03 01:23:19;;;;;;;;;;;24.80;43.90;;;;;;8464691;28;19958;-44
2022/07/03 01:27:25;;;;;;;;;;;24.80;43.90;;;;;;8465212;28;20291;-44
2022/07/03 01:31:26;;;;;;;;;;;24.80;43.90;;;;;;8464395;28;19919;-43
2022/07/03 01:35:30;;;;;;;;;;;24.80;43.90;;;;;;8464910;28;20388;-43
2022/07/03 01:39:31;;;;;;;;;;;24.80;43.90;;;;;;8464594;28;19911;-43
2022/07/03 01:43:33;;;;;;;;;;;24.80;43.90;;;;;;8463950;28;19998;-44
2022/07/03 01:47:34;;;;;;;;;;;24.80;43.90;;;;;;8464200;28;19992;-44
2022/07/03 01:51:36;;;;;;;;;;;24.80;43.90;;;;;;8464280;28;19942;-43
2022/07/03 01:55:41;;;;;;;;;;;24.80;43.90;;;;;;8463988;28;19957;-43
2022/07/03 01:59:42;;;;;;;;;;;24.80;44.00;;;;;;8464048;28;19934;-43
2022/07/03 02:03:46;;;;;;;;;;;24.80;44.00;;;;;;8464125;28;20327;-44
2022/07/03 02:07:57;;;;;;;;;;;24.80;44.00;;;;;;8463272;28;19920;-45
2022/07/03 02:11:58;;;;;;;;;;;24.70;43.90;;;;;;8463278;28;19912;-44
2022/07/03 02:15:58;;;;;;;;;;;24.70;44.40;;;;;;8464108;28;20059;-43
2022/07/03 02:20:03;;;;;;;;;;;24.70;44.00;;;;;;8463181;28;19912;-43
2022/07/03 02:24:07;;;;;;;;;;;24.70;44.00;;;;;;8463447;28;19912;-45
2022/07/03 02:28:13;;;;;;;;;;;24.70;44.00;;;;;;8463169;28;19919;-44
2022/07/03 02:32:19;;;;;;;;;;;24.70;44.00;;;;;;8463567;28;19915;-43
2022/07/03 02:36:20;;;;;;;;;;;24.70;44.00;;;;;;8463352;28;20349;-42
2022/07/03 02:40:30;;;;;;;;;;;24.70;44.00;;;;;;8463052;28;19907;-43
2022/07/03 02:44:34;;;;;;;;;;;24.60;44.00;;;;;;8463459;28;19911;-43
2022/07/03 02:48:38;;;;;;;;;;;24.60;44.00;;;;;;8463009;28;19972;-42
2022/07/03 02:52:42;;;;;;;;;;;24.60;44.00;;;;;;8462530;28;19922;-43
2022/07/03 02:56:50;;;;;;;;;;;24.60;44.00;;;;;;8462926;28;19907;-42
2022/07/03 03:01:11;;;;;;;;;;;24.60;44.00;;;;;;8463048;28;19999;-42
2022/07/03 03:05:11;;;;;;;;;;;24.60;44.00;;;;;;8410379;28;20383;-45
2022/07/03 03:09:15;;;;;;;;;;;24.60;44.00;;;;;;8462857;28;19920;-44
2022/07/03 03:13:19;;;;;;;;;;;24.60;44.00;;;;;;8462863;28;19911;-43
2022/07/03 03:17:23;;;;;;;;;;;24.60;44.60;;;;;;8462149;28;19965;-43
2022/07/03 03:21:26;;;;;;;;;;;24.60;44.00;;;;;;8462981;28;19908;-43
2022/07/03 03:25:26;;;;;;;;;;;24.50;44.00;;;;;;8464975;28;19920;-44
2022/07/03 03:29:27;;;;;;;;;;;24.50;44.00;;;;;;8468629;28;19969;-43
2022/07/03 03:33:28;;;;;;;;;;;24.50;44.00;;;;;;8468464;28;19911;-44
2022/07/03 03:37:30;;;;;;;;;;;24.50;44.00;;;;;;8468532;28;19960;-43
2022/07/03 03:41:30;;;;;;;;;;;24.50;44.00;;;;;;8468661;28;20060;-44
2022/07/03 03:45:31;;;;;;;;;;;24.50;44.10;;;;;;8468300;28;19911;-43
2022/07/03 03:49:31;;;;;;;;;;;24.50;44.00;;;;;;8467605;28;20004;-43
2022/07/03 03:53:32;;;;;;;;;;;24.50;44.00;;;;;;8468215;28;19915;-44
2022/07/03 03:57:33;;;;;;;;;;;24.50;44.00;;;;;;8467769;28;20280;-44
2022/07/03 04:01:33;;;;;;;;;;;24.50;44.10;;;;;;8467573;28;19908;-43
2022/07/03 04:05:34;;;;;;;;;;;24.50;44.10;;;;;;8466654;28;19968;-43
2022/07/03 04:09:34;;;;;;;;;;;24.50;44.10;;;;;;8467533;28;19920;-43
2022/07/03 04:13:35;;;;;;;;;;;24.50;44.10;;;;;;8466989;28;19964;-43
2022/07/03 04:17:35;;;;;;;;;;;24.40;44.00;;;;;;8467241;28;20288;-43
2022/07/03 04:21:36;;;;;;;;;;;24.40;44.00;;;;;;8467352;28;19908;-43
2022/07/03 04:25:36;;;;;;;;;;;24.40;44.00;;;;;;8466384;28;19915;-43
2022/07/03 04:29:36;;;;;;;;;;;24.40;44.00;;;;;;8466775;28;19927;-44
2022/07/03 04:33:37;;;;;;;;;;;24.40;44.00;;;;;;8466763;28;19915;-44
2022/07/03 04:37:37;;;;;;;;;;;24.40;44.00;;;;;;8465792;28;19912;-44
2022/07/03 04:41:38;;;;;;;;;;;24.40;44.10;;;;;;8466695;28;19912;-43
2022/07/03 04:45:38;;;;;;;;;;;24.40;44.10;;;;;;8466274;28;19923;-43
2022/07/03 04:49:39;;;;;;;;;;;24.40;44.10;;;;;;8465661;28;19926;-43
2022/07/03 04:53:39;;;;;;;;;;;24.30;44.00;;;;;;8466067;28;19990;-45
2022/07/03 04:57:40;;;;;;;;;;;24.40;44.10;;;;;;8465847;28;19912;-43
2022/07/03 05:01:40;;;;;;;;;;;24.40;44.10;;;;;;8465601;28;19916;-45
2022/07/03 05:05:41;;;;;;;;;;;24.40;44.10;;;;;;8465584;28;20287;-43
2022/07/03 05:09:41;;;;;;;;;;;24.40;44.10;;;;;;8465371;28;19926;-44
2022/07/03 05:13:41;;;;;;;;;;;24.30;44.00;;;;;;8464929;28;19912;-44
2022/07/03 05:17:42;;;;;;;;;;;24.30;44.00;;;;;;8465224;28;19912;-43
2022/07/03 05:21:42;;;;;;;;;;;24.30;44.00;;;;;;8465292;28;19915;-43
2022/07/03 05:25:43;;;;;;;;;;;24.40;44.00;;;;;;8464406;28;19915;-43
2022/07/03 05:29:43;;;;;;;;;;;24.50;43.80;;;;;;8464901;28;19942;-44
2022/07/03 05:33:44;;;;;;;;;;;24.60;43.60;;;;;;8465060;28;19908;-44
2022/07/03 05:37:44;;;;;;;;;;;24.70;43.30;;;;;;8464228;28;19912;-43
2022/07/03 05:41:44;;;;;;;;;;;24.70;43.10;;;;;;8464848;28;19912;-44
2022/07/03 05:45:45;;;;;;;;;;;24.70;43.10;;;;;;8464391;28;19916;-44
2022/07/03 05:49:45;;;;;;;;;;;24.70;43.20;;;;;;8463021;28;19947;-44
2022/07/03 05:53:46;;;;;;;;;;;24.70;43.30;;;;;;8464661;28;19950;-44
2022/07/03 05:57:46;;;;;;;;;;;24.60;43.40;;;;;;8464088;28;19912;-43
2022/07/03 06:01:47;;;;;;;;;;;24.60;43.50;;;;;;8463742;28;20322;-44
2022/07/03 06:05:47;;;;;;;;;;;24.50;43.50;;;;;;8463890;28;19912;-43
2022/07/03 06:09:48;;;;;;;;;;;24.50;43.60;;;;;;8464050;28;19916;-44
2022/07/03 06:13:48;;;;;;;;;;;24.50;43.60;;;;;;8463318;28;19930;-43
2022/07/03 06:17:48;;;;;;;;;;;24.50;43.70;;;;;;8463616;28;19934;-43
2022/07/03 06:21:49;;;;;;;;;;;24.50;43.70;;;;;;8464072;28;19911;-44
2022/07/03 06:25:49;;;;;;;;;;;24.50;43.80;;;;;;8463048;28;19930;-43
2022/07/03 06:29:50;;;;;;;;;;;24.50;43.80;;;;;;8463163;28;19927;-44
2022/07/03 06:33:51;;;;;;;;;;;24.40;43.80;;;;;;8463375;28;20261;-43
2022/07/03 06:37:51;;;;;;;;;;;24.40;43.80;;;;;;8463038;28;19912;-43
2022/07/03 06:41:51;;;;;;;;;;;24.40;43.80;;;;;;8463744;28;19990;-43
2022/07/03 06:45:52;;;;;;;;;;;24.40;43.90;;;;;;8463308;28;19957;-43
2022/07/03 06:49:52;;;;;;;;;;;24.40;43.90;;;;;;8462636;28;20328;-44
2022/07/03 06:53:53;;;;;;;;;;;24.40;43.90;;;;;;8463213;28;19908;-44
2022/07/03 06:57:53;;;;;;;;;;;24.40;43.90;;;;;;8463853;28;19911;-44
2022/07/03 07:01:54;;;;;;;;;;;24.40;43.90;;;;;;8469302;28;19937;-44
2022/07/03 07:05:54;;;;;;;;;;;24.40;44.00;;;;;;8468255;28;19995;-43
2022/07/03 07:09:54;;;;;;;;;;;24.40;43.90;;;;;;8451234;28;19915;-43
2022/07/03 07:13:55;;;;;;;;;;;24.40;44.00;;;;;;8469092;28;19911;-43
2022/07/03 07:17:55;;;;;;;;;;;24.40;44.00;;;;;;8469472;28;19908;-44
2022/07/03 07:21:56;;;;;;;;;;;24.40;44.00;;;;;;8469339;28;19973;-44
2022/07/03 07:25:56;;;;;;;;;;;24.40;44.00;;;;;;8468465;28;20364;-44
2022/07/03 07:29:57;;;;;;;;;;;24.40;44.00;;;;;;8468705;28;19972;-44
2022/07/03 07:33:57;;;;;;;;;;;24.40;44.00;;;;;;8468754;28;20353;-44
2022/07/03 07:37:58;;;;;;;;;;;24.40;44.10;;;;;;8468438;28;19912;-44
2022/07/03 07:41:58;;;;;;;;;;;24.40;44.00;;;;;;8468473;28;19919;-44
2022/07/03 07:45:59;;;;;;;;;;;24.40;44.00;;;;;;8468471;28;19916;-44
2022/07/03 07:49:59;;;;;;;;;;;24.30;44.00;;;;;;8467826;28;19919;-44
2022/07/03 07:53:59;;;;;;;;;;;24.40;44.00;;;;;;8468217;28;19914;-45
2022/07/03 07:58:00;;;;;;;;;;;24.40;44.00;;;;;;8468332;28;20399;-44
2022/07/03 08:06:19;;;;;;;;;;;24.50;44.00;;;;;;8473353;28;19972;-44
2022/07/03 08:10:20;;;;;;;;;;;24.50;44.00;;;;;;8466657;28;19908;-45
2022/07/03 08:14:20;;;;;;;;;;;24.50;44.00;;;;;;8467683;28;19939;-44
2022/07/03 08:18:21;;;;;;;;;;;24.50;44.00;;;;;;8449421;28;20356;-42
2022/07/03 08:22:21;;;;;;;;;;;24.50;44.00;;;;;;8466720;28;19956;-43
2022/07/03 08:26:21;;;;;;;;;;;24.50;44.00;;;;;;8466951;28;19959;-43
2022/07/03 08:30:22;;;;;;;;;;;24.50;44.00;;;;;;8466984;28;19908;-43
2022/07/03 08:34:23;;;;;;;;;;;24.60;44.00;;;;;;8466460;28;19912;-44
2022/07/03 08:38:26;;;;;;;;;;;24.60;44.00;;;;;;8466912;28;19911;-43
2022/07/03 08:42:28;;;;;;;;;;;24.60;44.00;;;;;;8466551;28;19916;-44
2022/07/03 08:46:30;;;;;;;;;;;24.60;44.00;;;;;;8465874;28;19919;-44
2022/07/03 08:50:32;;;;;;;;;;;24.60;44.00;;;;;;8466394;28;20010;-43
2022/07/03 08:54:33;;;;;;;;;;;24.60;44.00;;;;;;8466505;28;20057;-44
2022/07/03 08:58:34;;;;;;;;;;;24.60;44.00;;;;;;8465947;28;20360;-43
2022/07/03 09:02:34;;;;;;;;;;;24.70;44.00;;;;;;8465943;28;19911;-44
2022/07/03 09:06:35;;;;;;;;;;;24.70;44.00;;;;;;8465845;28;19919;-44
2022/07/03 09:10:36;;;;;;;;;;;24.70;44.00;;;;;;8465317;28;20003;-44
2022/07/03 09:14:36;;;;;;;;;;;24.70;43.90;;;;;;8465860;28;20341;-43
2022/07/03 09:18:39;;;;;;;;;;;24.80;44.00;;;;;;8466869;28;19908;-42
2022/07/03 09:22:39;;;;;;;;;;;24.80;44.00;;;;;;8465767;28;20364;-45
2022/07/03 09:26:49;;;;;;;;;;;24.80;44.50;;;;;;8465670;28;19920;-44
2022/07/03 09:31:00;;;;;;;;;;;24.80;43.90;;;;;;8465786;28;19915;-43
2022/07/03 09:35:15;;;;;;;;;;;24.80;43.90;;;;;;8464694;28;20341;-43
2022/07/03 09:39:22;;;;;;;;;;;24.80;43.90;;;;;;8465032;28;19908;-44
2022/07/03 09:43:24;;;;;;;;;;;24.90;43.90;;;;;;8464721;28;19919;-42
2022/07/03 09:47:25;;;;;;;;;;;24.80;43.80;;;;;;8464697;28;19927;-43
2022/07/03 09:51:26;;;;;;;;;;;24.90;43.90;;;;;;8464687;28;19943;-42
2022/07/03 09:55:27;;;;;;;;;;;24.90;43.90;;;;;;8463832;28;19912;-43
2022/07/03 09:59:27;;;;;;;;;;;25.00;43.90;;;;;;8464277;28;19915;-43
2022/07/03 10:03:28;;;;;;;;;;;25.00;43.90;;;;;;8464315;28;20010;-44
2022/07/03 10:07:28;;;;;;;;;;;25.00;43.90;;;;;;8463400;28;19988;-42
2022/07/03 10:11:29;;;;;;;;;;;25.00;43.80;;;;;;8462970;28;20540;-42
2022/07/03 10:15:30;;;;;;;;;;;25.00;43.80;;;;;;8464000;28;19934;-43
2022/07/03 10:19:37;;;;;;;;;;;25.00;43.80;;;;;;8463401;28;19986;-44
2022/07/03 10:23:37;;;;;;;;;;;25.10;43.90;;;;;;8463923;28;19925;-43
2022/07/03 10:27:39;;;;;;;;;;;25.10;43.80;;;;;;8463793;28;20276;-45
2022/07/03 10:31:40;;;;;;;;;;;25.20;43.80;;;;;;8463306;28;20288;-43
2022/07/03 10:35:42;;;;;;;;;;;25.20;43.80;;;;;;8472876;28;19914;-43
2022/07/03 10:39:53;;;;;;;;;;;25.20;43.80;;;;;;8474745;28;19911;-42
2022/07/03 10:48:13;;;;;;;;;;;25.20;43.70;;;;;;8474648;28;20037;-42
2022/07/03 10:52:16;;;;;;;;;;;25.30;43.70;;;;;;8474546;28;20269;-43
2022/07/03 10:56:17;;;;;;;;;;;25.30;43.70;;;;;;8473931;28;19919;-43
2022/07/03 11:00:18;;;;;;;;;;;25.30;43.70;;;;;;8474429;28;19911;-43
2022/07/03 11:04:18;;;;;;;;;;;25.30;43.60;;;;;;8474746;28;20364;-43
2022/07/03 11:08:19;;;;;;;;;;;25.30;43.60;;;;;;8473608;28;19923;-43
2022/07/03 11:12:39;;;;;;;;;;;25.40;43.60;;;;;;8474169;28;20127;-44
2022/07/03 11:16:40;;;;;;;;;;;25.40;43.60;;;;;;8473798;28;19912;-43
2022/07/03 11:20:43;;;;;;;;;;;25.40;43.60;;;;;;8474174;28;19914;-44
2022/07/03 11:24:44;;;;;;;;;;;25.50;43.60;;;;;;8474392;28;20336;-43
2022/07/03 11:28:44;;;;;;;;;;;25.50;43.60;;;;;;8473720;28;19927;-43
2022/07/03 11:32:57;;;;;;;;;;;25.50;43.50;;;;;;8473930;28;20284;-43
2022/07/03 11:36:58;;;;;;;;;;;25.50;43.50;;;;;;8473890;28;19954;-43
2022/07/03 11:40:59;;;;;;;;;;;25.60;43.50;;;;;;8473399;28;19919;-43
2022/07/03 11:44:59;;;;;;;;;;;25.60;43.50;;;;;;8470949;28;19908;-41
2022/07/03 11:49:10;;;;;;;;;;;25.60;43.40;;;;;;8468568;28;19923;-43
2022/07/03 11:53:33;;;;;;;;;;;25.60;43.50;;;;;;8467680;28;20345;-42
2022/07/03 11:57:33;;;;;;;;;;;25.60;43.40;;;;;;8468224;28;20352;-42
2022/07/03 12:01:35;;;;;;;;;;;25.60;43.30;;;;;;8467434;28;19912;-42
2022/07/03 12:05:36;;;;;;;;;;;25.70;43.30;;;;;;8468209;28;19947;-43
2022/07/03 12:09:36;;;;;;;;;;;25.70;43.30;;;;;;8468056;28;19922;-44
2022/07/03 12:13:37;;;;;;;;;;;25.80;43.30;;;;;;8467188;28;19990;-43
2022/07/03 12:17:37;;;;;;;;;;;25.80;43.30;;;;;;8467469;28;19912;-42
2022/07/03 12:21:39;;;;;;;;;;;25.80;43.20;;;;;;8467324;28;19912;-43
2022/07/03 12:25:40;;;;;;;;;;;25.80;43.20;;;;;;8466581;28;19972;-42
2022/07/03 12:29:41;;;;;;;;;;;25.90;43.30;;;;;;8467546;28;20314;-43
2022/07/03 12:33:41;;;;;;;;;;;25.90;43.20;;;;;;8431985;28;19964;-43
2022/07/03 12:37:44;;;;;;;;;;;25.90;43.20;;;;;;8453062;28;19912;-43
2022/07/03 12:41:45;;;;;;;;;;;25.90;43.20;;;;;;8466724;28;20284;-44
2022/07/03 12:45:45;;;;;;;;;;;25.90;43.20;;;;;;8466480;28;19918;-43
2022/07/03 12:49:45;;;;;;;;;;;26.00;43.20;;;;;;8466005;28;19916;-44
2022/07/03 12:53:53;;;;;;;;;;;26.00;43.20;;;;;;8466297;28;20372;-45
2022/07/03 13:02:33;;;;;;;;;;;26.00;43.20;;;;;;8464513;28;19918;-43
2022/07/03 13:06:33;;;;;;;;;;;26.00;43.20;;;;;;8465860;28;20312;-43
2022/07/03 13:10:34;;;;;;;;;;;26.00;43.20;;;;;;8465252;28;20014;-42
2022/07/03 13:14:34;;;;;;;;;;;26.10;43.20;;;;;;8465785;28;19914;-44
2022/07/03 13:18:35;;;;;;;;;;;26.10;43.20;;;;;;8465633;28;19912;-43
2022/07/03 13:22:35;;;;;;;;;;;26.10;43.20;;;;;;8464800;28;19912;-44
2022/07/03 13:26:36;;;;;;;;;;;26.10;43.20;;;;;;8465100;28;20010;-43
2022/07/03 13:30:37;;;;;;;;;;;26.10;43.20;;;;;;8465475;28;20293;-43
2022/07/03 13:34:37;;;;;;;;;;;26.10;43.20;;;;;;8464615;28;19912;-44
2022/07/03 13:38:38;;;;;;;;;;;26.10;43.20;;;;;;8464824;28;20384;-42
2022/07/03 13:42:38;;;;;;;;;;;26.20;43.20;;;;;;8464582;28;20334;-42
2022/07/03 13:46:39;;;;;;;;;;;26.20;43.20;;;;;;8464001;28;20020;-43
2022/07/03 13:50:41;;;;;;;;;;;26.20;43.20;;;;;;8464687;28;19919;-43
2022/07/03 13:54:41;;;;;;;;;;;26.20;43.20;;;;;;8464294;28;19957;-42
2022/07/03 13:58:42;;;;;;;;;;;26.20;43.20;;;;;;8463846;28;19912;-43
2022/07/03 14:02:42;;;;;;;;;;;26.20;43.20;;;;;;8464370;28;20002;-42
2022/07/03 14:06:43;;;;;;;;;;;26.20;43.10;;;;;;8464084;28;19929;-42
2022/07/03 14:10:43;;;;;;;;;;;26.20;43.10;;;;;;8463269;28;20391;-42
2022/07/03 14:14:43;;;;;;;;;;;26.20;43.10;;;;;;8463877;28;20321;-42
2022/07/03 14:18:44;;;;;;;;;;;26.30;43.20;;;;;;8463909;28;19937;-43
2022/07/03 14:22:45;;;;;;;;;;;26.30;43.20;;;;;;8463348;28;20041;-42
2022/07/03 14:35:24;;;;;;;;;;;26.30;43.20;;;;;;8463460;28;20273;-43
2022/07/03 14:39:24;;;;;;;;;;;26.30;43.10;;;;;;8463454;28;19911;-45
2022/07/03 14:43:25;;;;;;;;;;;26.40;43.20;;;;;;8462838;28;20427;-45
2022/07/03 14:47:25;;;;;;;;;;;26.40;43.20;;;;;;8463535;28;19920;-42
2022/07/03 14:51:26;;;;;;;;;;;26.40;43.10;;;;;;8463271;28;20254;-43
2022/07/03 14:55:30;;;;;;;;;;;26.40;43.20;;;;;;8462987;28;20027;-43
2022/07/03 14:59:50;;;;;;;;;;;26.50;43.20;;;;;;8463428;28;19912;-43
2022/07/03 15:04:01;;;;;;;;;;;26.40;43.10;;;;;;8463171;28;20347;-44
2022/07/03 15:08:20;;;;;;;;;;;26.40;43.10;;;;;;8462441;28;20449;-43
2022/07/03 15:12:26;;;;;;;;;;;26.40;43.00;;;;;;8462696;28;19915;-43
2022/07/03 15:16:28;;;;;;;;;;;26.40;43.10;;;;;;8462304;28;19931;-43
2022/07/03 15:20:34;;;;;;;;;;;26.40;43.10;;;;;;8466165;28;19908;-43
2022/07/03 15:24:35;;;;;;;;;;;26.40;43.10;;;;;;8469037;28;19912;-43
2022/07/03 15:28:36;;;;;;;;;;;26.40;43.10;;;;;;8468851;28;19919;-44
2022/07/03 15:32:36;;;;;;;;;;;26.40;43.20;;;;;;8468886;28;19980;-44
2022/07/03 15:36:56;;;;;;;;;;;26.40;43.10;;;;;;8468909;28;19929;-44
2022/07/03 15:40:56;;;;;;;;;;;26.40;43.10;;;;;;8468264;28;20322;-44
2022/07/03 15:44:57;;;;;;;;;;;26.40;43.20;;;;;;8468667;28;19911;-43
2022/07/03 15:49:03;;;;;;;;;;;26.40;43.20;;;;;;8468276;28;19926;-43
2022/07/03 15:53:04;;;;;;;;;;;26.40;43.20;;;;;;8467684;28;19916;-43
2022/07/03 15:57:09;;;;;;;;;;;26.40;43.20;;;;;;8467982;28;19919;-42
2022/07/03 16:05:33;;;;;;;;;;;26.40;43.20;;;;;;8461008;28;19991;-42
2022/07/03 16:09:33;;;;;;;;;;;26.40;43.10;;;;;;8458388;28;19921;-43
2022/07/03 16:13:34;;;;;;;;;;;26.50;43.20;;;;;;8467085;28;19912;-43
2022/07/03 16:17:34;;;;;;;;;;;26.50;43.20;;;;;;8467825;28;19919;-42
2022/07/03 16:21:36;;;;;;;;;;;26.50;43.20;;;;;;8467429;28;19914;-42
2022/07/03 16:25:37;;;;;;;;;;;26.50;43.10;;;;;;8466789;28;19916;-42
2022/07/03 16:29:37;;;;;;;;;;;26.50;43.20;;;;;;8467001;28;19919;-43
2022/07/03 16:33:42;;;;;;;;;;;26.50;43.10;;;;;;8466307;28;20360;-43
2022/07/03 16:37:45;;;;;;;;;;;26.50;43.10;;;;;;8466354;28;19919;-43
2022/07/03 16:41:52;;;;;;;;;;;26.50;43.10;;;;;;8467184;28;19915;-43
2022/07/03 16:45:54;;;;;;;;;;;26.50;43.10;;;;;;8466978;28;20017;-43
2022/07/03 16:49:55;;;;;;;;;;;26.50;43.10;;;;;;8465888;28;19929;-43
2022/07/03 16:53:56;;;;;;;;;;;26.50;43.10;;;;;;8466232;28;20326;-44
2022/07/03 16:57:57;;;;;;;;;;;26.50;43.10;;;;;;8466126;28;19945;-43
2022/07/03 17:01:58;;;;;;;;;;;26.50;43.10;;;;;;8465704;28;19915;-43
2022/07/03 17:05:59;;;;;;;;;;;26.50;43.10;;;;;;8466099;28;19935;-44
2022/07/03 17:10:00;;;;;;;;;;;26.50;43.10;;;;;;8465639;28;19919;-43
2022/07/03 17:14:00;;;;;;;;;;;26.50;43.10;;;;;;8465463;28;20426;-43
2022/07/03 17:18:03;;;;;;;;;;;26.60;43.10;;;;;;8465745;28;19915;-43
2022/07/03 17:22:05;;;;;;;;;;;26.60;43.10;;;;;;8465646;28;19908;-43
2022/07/03 17:26:06;;;;;;;;;;;26.50;43.10;;;;;;8464853;28;20425;-43
2022/07/03 17:30:08;;;;;;;;;;;26.60;43.10;;;;;;8465311;28;19966;-42
2022/07/03 17:34:09;;;;;;;;;;;26.50;43.10;;;;;;8464615;28;19996;-44
2022/07/03 17:38:15;;;;;;;;;;;26.50;43.10;;;;;;8464292;28;19920;-43
2022/07/03 17:42:18;;;;;;;;;;;26.50;43.10;;;;;;8464302;28;19965;-43
2022/07/03 17:46:18;;;;;;;;;;;26.50;43.10;;;;;;8463895;28;19915;-43
2022/07/03 17:50:20;;;;;;;;;;;26.50;43.10;;;;;;8463970;28;19980;-43
2022/07/03 17:54:20;;;;;;;;;;;26.60;43.20;;;;;;8464446;28;19954;-43
2022/07/03 17:58:21;;;;;;;;;;;26.50;43.20;;;;;;8463799;28;19934;-42
2022/07/03 18:02:22;;;;;;;;;;;26.50;43.20;;;;;;8464789;28;20306;-43
2022/07/03 18:06:28;;;;;;;;;;;26.60;43.20;;;;;;8464326;28;19911;-43
2022/07/03 18:10:34;;;;;;;;;;;26.50;43.20;;;;;;8463645;28;19923;-43
2022/07/03 18:14:37;;;;;;;;;;;26.50;43.20;;;;;;8463845;28;19911;-43
2022/07/03 18:18:39;;;;;;;;;;;26.50;43.20;;;;;;8463922;28;19919;-43
2022/07/03 18:22:41;;;;;;;;;;;26.50;43.20;;;;;;8463376;28;20312;-43
2022/07/03 18:26:44;;;;;;;;;;;26.50;43.20;;;;;;8464045;28;19916;-43
2022/07/03 18:30:45;;;;;;;;;;;26.50;43.20;;;;;;8464045;28;20397;-44
2022/07/03 18:34:47;;;;;;;;;;;26.50;43.20;;;;;;8463025;28;20418;-43
2022/07/03 18:38:47;;;;;;;;;;;26.50;43.30;;;;;;8463429;28;19999;-43
2022/07/03 18:42:48;;;;;;;;;;;26.50;43.30;;;;;;8462968;28;20292;-43
2022/07/03 18:46:53;;;;;;;;;;;26.50;43.30;;;;;;8462987;28;20437;-43
2022/07/03 18:51:00;;;;;;;;;;;26.50;43.30;;;;;;8463309;28;19919;-43
2022/07/03 18:55:00;;;;;;;;;;;26.50;43.50;;;;;;8465616;28;19915;-43
2022/07/03 18:59:06;;;;;;;;;;;26.50;43.40;;;;;;8469587;28;19955;-44
2022/07/03 19:03:12;;;;;;;;;;;26.50;43.40;;;;;;8468726;28;19915;-43
2022/07/03 19:07:13;;;;;;;;;;;26.50;43.50;;;;;;8469873;28;19920;-44
2022/07/03 19:11:16;;;;;;;;;;;26.50;43.50;;;;;;8469091;28;19943;-44
2022/07/03 19:15:28;;;;;;;;;;;26.50;43.50;;;;;;8469413;28;19999;-43
2022/07/03 19:19:28;;;;;;;;;;;26.50;43.60;;;;;;8469016;28;19907;-43
2022/07/03 19:23:29;;;;;;;;;;;26.50;43.60;;;;;;8469592;28;19912;-43
2022/07/03 19:27:30;;;;;;;;;;;26.50;43.70;;;;;;8469544;28;19924;-43
2022/07/03 19:31:30;;;;;;;;;;;26.50;43.80;;;;;;8468480;28;19923;-43
2022/07/03 19:35:30;;;;;;;;;;;26.50;44.00;;;;;;8469096;28;19994;-43
2022/07/03 19:39:31;;;;;;;;;;;26.50;43.90;;;;;;8468709;28;19998;-44
2022/07/03 19:43:31;;;;;;;;;;;26.50;43.90;;;;;;8468055;28;19912;-42
2022/07/03 19:47:32;;;;;;;;;;;26.50;43.80;;;;;;8468487;28;20032;-42
2022/07/03 19:51:33;;;;;;;;;;;26.40;43.70;;;;;;8450385;28;19918;-43
2022/07/03 19:55:34;;;;;;;;;;;26.40;43.70;;;;;;8467737;28;20379;-44
2022/07/03 19:59:38;;;;;;;;;;;26.40;43.60;;;;;;8468073;28;19991;-43
2022/07/03 20:03:38;;;;;;;;;;;26.50;43.60;;;;;;8468202;28;19908;-44
2022/07/03 20:07:39;;;;;;;;;;;26.40;43.60;;;;;;8466578;28;20394;-43
2022/07/03 20:11:39;;;;;;;;;;;26.50;43.60;;;;;;8468225;28;19998;-44
2022/07/03 20:15:40;;;;;;;;;;;26.40;43.50;;;;;;8467727;28;19915;-44
2022/07/03 20:19:41;;;;;;;;;;;26.40;43.50;;;;;;8466843;28;20253;-45
2022/07/03 20:28:04;;;;;;;;;;;26.40;43.50;;;;;;8467379;28;19930;-43
2022/07/03 20:32:06;;;;;;;;;;;26.40;43.50;;;;;;8466475;28;20391;-43
2022/07/03 20:36:07;;;;;;;;;;;26.40;43.50;;;;;;8466992;28;20026;-42
2022/07/03 20:40:07;;;;;;;;;;;26.40;43.50;;;;;;8466834;28;19908;-43
2022/07/03 20:44:10;;;;;;;;;;;26.40;43.50;;;;;;8465959;28;19934;-44
2022/07/03 20:48:10;;;;;;;;;;;26.40;43.50;;;;;;8466683;28;19919;-44
2022/07/03 20:52:11;;;;;;;;;;;26.40;43.50;;;;;;8466303;28;19934;-42
2022/07/03 20:56:11;;;;;;;;;;;26.40;43.50;;;;;;8466054;28;20379;-43
2022/07/03 21:00:12;;;;;;;;;;;26.40;43.50;;;;;;8466365;28;20360;-44
2022/07/03 21:04:13;;;;;;;;;;;26.40;43.60;;;;;;8466033;28;19918;-43
2022/07/03 21:08:25;;;;;;;;;;;26.40;43.60;;;;;;8465471;28;19915;-43
2022/07/03 21:12:25;;;;;;;;;;;26.40;43.60;;;;;;8468907;28;19918;-43
2022/07/03 21:16:30;;;;;;;;;;;26.40;43.60;;;;;;8465019;28;19908;-43
2022/07/03 21:20:31;;;;;;;;;;;26.30;43.50;;;;;;8465349;28;19923;-43
2022/07/03 21:24:31;;;;;;;;;;;26.40;43.60;;;;;;8465366;28;20252;-43
2022/07/03 21:28:31;;;;;;;;;;;26.40;43.60;;;;;;8464970;28;19923;-43
2022/07/03 21:32:32;;;;;;;;;;;26.40;43.60;;;;;;8465385;28;19912;-43
2022/07/03 21:36:32;;;;;;;;;;;26.40;43.60;;;;;;8465134;28;19911;-44
2022/07/03 21:40:33;;;;;;;;;;;26.30;43.70;;;;;;8464492;28;19956;-43
2022/07/03 21:44:33;;;;;;;;;;;26.40;43.70;;;;;;8464789;28;19926;-44
2022/07/03 21:48:34;;;;;;;;;;;26.30;43.70;;;;;;8464734;28;19998;-43
2022/07/03 21:52:34;;;;;;;;;;;26.30;43.70;;;;;;8463931;28;19919;-44
2022/07/03 21:56:35;;;;;;;;;;;26.30;43.70;;;;;;8464310;28;19911;-43
2022/07/03 22:00:35;;;;;;;;;;;26.30;44.20;;;;;;8463845;28;19912;-43
2022/07/03 22:04:36;;;;;;;;;;;26.30;43.70;;;;;;8463461;28;19912;-44
2022/07/03 22:08:36;;;;;;;;;;;26.30;43.70;;;;;;8464282;28;19923;-43
2022/07/03 22:12:43;;;;;;;;;;;26.30;43.80;;;;;;8460376;28;19957;-43
2022/07/03 22:16:43;;;;;;;;;;;26.30;43.80;;;;;;8463364;28;19912;-43
2022/07/03 22:20:43;;;;;;;;;;;26.30;43.80;;;;;;8463884;28;19919;-43
2022/07/03 22:24:44;;;;;;;;;;;26.30;43.80;;;;;;8463690;28;19927;-44
2022/07/03 22:28:44;;;;;;;;;;;26.20;43.70;;;;;;8462641;28;19915;-45
2022/07/03 22:32:45;;;;;;;;;;;26.20;43.70;;;;;;8463727;28;19912;-43
2022/07/03 22:36:45;;;;;;;;;;;26.20;43.70;;;;;;8463556;28;20424;-43
2022/07/03 22:40:46;;;;;;;;;;;26.20;43.80;;;;;;8463049;28;19966;-45
2022/07/03 22:44:46;;;;;;;;;;;26.20;43.80;;;;;;8463336;28;19912;-45
2022/07/03 22:48:47;;;;;;;;;;;26.20;43.80;;;;;;8445220;28;20277;-44
2022/07/03 22:52:47;;;;;;;;;;;26.20;43.80;;;;;;8462996;28;19943;-44
2022/07/03 22:56:48;;;;;;;;;;;26.20;43.90;;;;;;8463200;28;19911;-44
2022/07/03 23:00:48;;;;;;;;;;;26.20;43.90;;;;;;8463236;28;19911;-43
2022/07/03 23:04:49;;;;;;;;;;;26.20;43.90;;;;;;8462564;28;19954;-42
2022/07/03 23:08:50;;;;;;;;;;;26.20;44.00;;;;;;8463442;28;20276;-44
2022/07/03 23:12:50;;;;;;;;;;;26.10;44.00;;;;;;8462895;28;19916;-43
2022/07/03 23:16:51;;;;;;;;;;;26.20;44.00;;;;;;8462287;28;19911;-43
2022/07/03 23:20:52;;;;;;;;;;;26.10;44.00;;;;;;8463087;28;19947;-43
2022/07/03 23:24:52;;;;;;;;;;;26.10;44.10;;;;;;8462689;28;19959;-44
2022/07/03 23:28:52;;;;;;;;;;;26.10;44.10;;;;;;8444373;28;20384;-44
2022/07/03 23:32:53;;;;;;;;;;;26.10;44.10;;;;;;8462776;28;19912;-44
2022/07/03 23:36:53;;;;;;;;;;;26.10;44.10;;;;;;8470757;28;19912;-41
2022/07/03 23:40:54;;;;;;;;;;;26.10;44.10;;;;;;8463860;28;19912;-44
2022/07/03 23:44:54;;;;;;;;;;;26.10;44.10;;;;;;8468716;28;19908;-43
2022/07/03 23:53:14;;;;;;;;;;;26.00;44.10;;;;;;8467984;28;19957;-45
2022/07/03 23:57:14;;;;;;;;;;;26.10;44.20;;;;;;8468164;28;19911;-43
